NCAR-RAP Real-Time Weather Data

Output produced by METARs form (20 January 2018  03:37 UTC)
found at http://weather.rap.ucar.edu/surface/
 
KISN 200252Z AUTO 22007KT 10SM CLR 00/M05 A2969 RMK AO2 SLP073 T00001050 51012
KISN 200152Z AUTO VRB03KT 10SM CLR M01/M04 A2968 RMK AO2 SLP069 T10061044
 
KMOT 200254Z 25010KT 10SM CLR 02/M03 A2963 RMK AO2 SLP049 T00171033 53012
KMOT 200154Z 24012KT 10SM CLR 02/M03 A2962 RMK AO2 SLP043 T00221033
 
KMIB 200256Z AUTO 27014KT 10SM CLR 00/M03 A2961 RMK AO2 SLP048 T00011035 52010
KMIB 200156Z AUTO 28010KT 10SM CLR 00/M03 A2960 RMK AO2 SLP044 T00021032
 
KSDY 200256Z AUTO 00000KT 10SM BKN120 01/M01 A2971 RMK AO2 SLP084 T00061011 51009 FZRANO
KSDY 200156Z AUTO 23008KT 10SM CLR 02/M01 A2970 RMK AO2 SLP079 T00221011 FZRANO
 
KN60 200252Z AUTO 29009KT 00/M04 A2965 RMK AO1 SLP060 T00001039 51013
KN60 200152Z AUTO 29012KT 01/M03 A2965 RMK AO1 SLP058 T00111033